Time;durP1;ratioP1;P1;durP2;ratioP2;P2;SDS_P1;SDS_P2;PMS_P1;PMS_P2;Temp;Humidity;BMP_temperature;BMP_pressure;BME280_temperature;BME280_humidity;BME280_pressure;Samples;Min_cycle;Max_cycle;Signal;HPM_P1;HPM_P2
2023/04/20 00:02:08;;;;;;;9.70;7.90;;;;;;;;;;10353702;28;20050;-83
2023/04/20 00:07:09;;;;;;;9.38;7.70;;;;;;;;;;10335088;28;20051;-84
2023/04/20 00:12:10;;;;;;;11.10;8.07;;;;;;;;;;10329066;28;20804;-86
2023/04/20 00:17:16;;;;;;;10.80;8.30;;;;;;;;;;10299811;28;20388;-84
2023/04/20 00:22:19;;;;;;;10.50;7.90;;;;;;;;;;10278469;28;20066;-87
2023/04/20 00:27:20;;;;;;;10.23;8.33;;;;;;;;;;10286756;28;20062;-87
2023/04/20 00:32:41;;;;;;;13.30;8.82;;;;;;;;;;10305211;28;20039;-87
2023/04/20 00:37:42;;;;;;;9.90;7.30;;;;;;;;;;10303429;28;20054;-85
2023/04/20 00:42:45;;;;;;;11.13;7.53;;;;;;;;;;10300230;28;20051;-85
2023/04/20 00:47:46;;;;;;;10.80;7.63;;;;;;;;;;10254770;28;20062;-84
2023/04/20 00:52:48;;;;;;;9.55;7.40;;;;;;;;;;10301135;28;20050;-84
2023/04/20 00:57:58;;;;;;;10.80;7.45;;;;;;;;;;10305931;28;20050;-84
2023/04/20 01:02:59;;;;;;;12.50;8.05;;;;;;;;;;10295111;28;20088;-84
2023/04/20 01:08:02;;;;;;;9.60;7.15;;;;;;;;;;10330996;28;20128;-84
2023/04/20 01:13:04;;;;;;;10.40;6.43;;;;;;;;;;10326664;28;20046;-83
2023/04/20 01:18:08;;;;;;;7.90;7.10;;;;;;;;;;10292335;28;20054;-84
2023/04/20 01:23:11;;;;;;;8.75;7.07;;;;;;;;;;10294556;28;20123;-83
2023/04/20 01:28:13;;;;;;;9.20;6.32;;;;;;;;;;10295744;28;20042;-83
2023/04/20 01:33:13;;;;;;;9.95;6.97;;;;;;;;;;10320192;28;20070;-84
2023/04/20 01:38:21;;;;;;;10.27;7.18;;;;;;;;;;10318273;28;20054;-81
2023/04/20 01:43:21;;;;;;;10.50;6.60;;;;;;;;;;10299657;28;20050;-82
2023/04/20 01:48:22;;;;;;;9.65;7.78;;;;;;;;;;10310273;28;20069;-81
2023/04/20 01:53:24;;;;;;;10.65;7.18;;;;;;;;;;10300801;28;20057;-81
2023/04/20 01:58:24;;;;;;;8.00;5.90;;;;;;;;;;10280995;28;20507;-81
2023/04/20 02:03:25;;;;;;;9.63;7.15;;;;;;;;;;10284826;28;20085;-81
2023/04/20 02:08:27;;;;;;;10.10;6.57;;;;;;;;;;10315134;28;20059;-81
2023/04/20 02:13:29;;;;;;;9.13;6.60;;;;;;;;;;10333708;28;20149;-81
2023/04/20 02:18:31;;;;;;;10.50;6.80;;;;;;;;;;10290810;28;20307;-84
2023/04/20 02:23:32;;;;;;;11.00;7.30;;;;;;;;;;10301873;28;20411;-85
2023/04/20 02:28:33;;;;;;;9.45;6.85;;;;;;;;;;10301221;28;20054;-83
2023/04/20 02:33:34;;;;;;;11.27;7.22;;;;;;;;;;10295704;28;20133;-85
2023/04/20 02:38:34;;;;;;;11.13;7.75;;;;;;;;;;10297342;28;20060;-83
2023/04/20 02:43:35;;;;;;;8.35;6.13;;;;;;;;;;10295443;28;20090;-83
2023/04/20 02:48:37;;;;;;;8.57;6.72;;;;;;;;;;10282160;28;20862;-83
2023/04/20 02:53:38;;;;;;;11.20;6.80;;;;;;;;;;10290381;28;20057;-82
2023/04/20 02:59:00;;;;;;;11.10;6.57;;;;;;;;;;10285865;28;20068;-82
2023/04/20 03:04:13;;;;;;;10.77;7.97;;;;;;;;;;10290462;28;20058;-81
2023/04/20 03:09:22;;;;;;;10.75;8.45;;;;;;;;;;10283599;28;20563;-81
2023/04/20 03:14:50;;;;;;;10.20;7.28;;;;;;;;;;10299959;28;20078;-80
2023/04/20 03:19:58;;;;;;;12.93;8.25;;;;;;;;;;10284980;28;20749;-82
2023/04/20 03:24:58;;;;;;;11.98;8.48;;;;;;;;;;10284870;28;20062;-81
2023/04/20 03:30:19;;;;;;;11.50;8.10;;;;;;;;;;10288326;28;20046;-85
2023/04/20 03:35:25;;;;;;;11.98;8.18;;;;;;;;;;10277580;28;20069;-83
2023/04/20 03:40:33;;;;;;;12.40;7.63;;;;;;;;;;10299126;28;20042;-85
2023/04/20 03:45:36;;;;;;;11.88;8.05;;;;;;;;;;10294323;28;20050;-84
2023/04/20 03:51:12;;;;;;;10.82;8.15;;;;;;;;;;10303934;28;20085;-82
2023/04/20 03:56:14;;;;;;;11.75;8.30;;;;;;;;;;10301021;28;20165;-84
2023/04/20 04:01:17;;;;;;;9.70;7.65;;;;;;;;;;10310791;28;20260;-81
2023/04/20 04:06:22;;;;;;;14.27;8.25;;;;;;;;;;10303963;28;20060;-79
2023/04/20 04:11:28;;;;;;;10.43;8.52;;;;;;;;;;10305560;28;20046;-81
2023/04/20 04:16:31;;;;;;;13.02;9.55;;;;;;;;;;10289325;28;20050;-82
2023/04/20 04:21:33;;;;;;;15.77;10.05;;;;;;;;;;10303011;28;20530;-81
2023/04/20 04:26:37;;;;;;;12.68;9.65;;;;;;;;;;10299197;28;20054;-82
2023/04/20 04:31:39;;;;;;;14.90;9.63;;;;;;;;;;10271617;28;20842;-83
2023/04/20 04:36:48;;;;;;;14.23;9.55;;;;;;;;;;10307706;28;20064;-81
2023/04/20 04:41:54;;;;;;;15.63;11.38;;;;;;;;;;10308267;28;20046;-87
2023/04/20 04:47:10;;;;;;;15.45;11.02;;;;;;;;;;10293693;28;20062;-83
2023/04/20 04:52:12;;;;;;;13.50;9.93;;;;;;;;;;10271390;28;20065;-83
2023/04/20 04:57:22;;;;;;;14.80;10.02;;;;;;;;;;10313525;28;20050;-83
2023/04/20 05:02:22;;;;;;;14.85;9.90;;;;;;;;;;10310795;28;20061;-84
2023/04/20 05:07:25;;;;;;;14.70;10.05;;;;;;;;;;10294410;28;20073;-84
2023/04/20 05:12:25;;;;;;;17.45;10.30;;;;;;;;;;10342852;28;20046;-85
2023/04/20 05:17:28;;;;;;;14.32;10.63;;;;;;;;;;10307922;28;20038;-83
2023/04/20 05:22:29;;;;;;;13.95;9.50;;;;;;;;;;10310453;28;20078;-85
2023/04/20 05:27:30;;;;;;;14.63;9.68;;;;;;;;;;10309854;28;20124;-84
2023/04/20 05:32:31;;;;;;;13.90;9.98;;;;;;;;;;10312174;28;20042;-85
2023/04/20 05:37:32;;;;;;;12.40;9.27;;;;;;;;;;10311718;28;20038;-89
2023/04/20 05:42:35;;;;;;;14.25;9.85;;;;;;;;;;10304889;28;20060;-83
2023/04/20 05:47:37;;;;;;;14.82;9.88;;;;;;;;;;10327510;28;20062;-82
2023/04/20 05:52:38;;;;;;;12.00;8.82;;;;;;;;;;10302974;28;20054;-84
2023/04/20 05:57:41;;;;;;;12.25;8.80;;;;;;;;;;10315328;28;20454;-84
2023/04/20 06:02:42;;;;;;;11.05;8.35;;;;;;;;;;10328366;28;20034;-89
2023/04/20 06:07:48;;;;;;;9.77;8.00;;;;;;;;;;10339432;28;20153;-83
2023/04/20 06:12:49;;;;;;;11.40;8.07;;;;;;;;;;10363746;28;20042;-84
2023/04/20 06:17:51;;;;;;;11.57;8.40;;;;;;;;;;10331495;28;20281;-83
2023/04/20 06:22:52;;;;;;;9.27;7.47;;;;;;;;;;10362095;23;20072;-80
2023/04/20 06:27:52;;;;;;;10.00;7.28;;;;;;;;;;10366246;28;20058;-83
2023/04/20 06:32:53;;;;;;;9.20;7.53;;;;;;;;;;10473068;23;20114;-86
2023/04/20 06:38:01;;;;;;;9.38;7.45;;;;;;;;;;10351330;28;20030;-84
2023/04/20 06:43:05;;;;;;;9.63;7.47;;;;;;;;;;10358747;28;20053;-81
2023/04/20 06:48:08;;;;;;;8.40;6.55;;;;;;;;;;10366360;28;20058;-83
2023/04/20 06:53:10;;;;;;;11.52;7.97;;;;;;;;;;10341902;28;20057;-86
2023/04/20 06:58:12;;;;;;;9.55;6.82;;;;;;;;;;10288120;28;20518;-83
2023/04/20 07:03:13;;;;;;;9.15;6.53;;;;;;;;;;10315598;28;20062;-84
2023/04/20 07:08:17;;;;;;;7.68;6.68;;;;;;;;;;10324114;28;20054;-82
2023/04/20 07:13:21;;;;;;;7.30;6.40;;;;;;;;;;10307734;28;20049;-81
2023/04/20 07:18:23;;;;;;;7.85;6.68;;;;;;;;;;10305181;28;20057;-84
2023/04/20 07:23:30;;;;;;;10.35;6.47;;;;;;;;;;10295868;28;20034;-82
2023/04/20 07:28:30;;;;;;;;;;;;;;;;;;10297927;28;20054;-84
2023/04/20 07:33:34;;;;;;;7.10;5.72;;;;;;;;;;10277326;28;19917;-85
2023/04/20 07:38:36;;;;;;;8.77;6.10;;;;;;;;;;10313195;28;20093;-85
2023/04/20 07:43:38;;;;;;;7.32;6.28;;;;;;;;;;10276801;28;20061;-83
2023/04/20 07:48:40;;;;;;;6.75;5.90;;;;;;;;;;10337857;28;20037;-83
2023/04/20 07:53:41;;;;;;;7.40;6.10;;;;;;;;;;10296848;28;20054;-82
2023/04/20 07:58:41;;;;;;;8.00;5.55;;;;;;;;;;10301763;28;20050;-83
2023/04/20 08:03:45;;;;;;;7.43;5.47;;;;;;;;;;10289428;28;20050;-82
2023/04/20 08:08:47;;;;;;;8.15;5.65;;;;;;;;;;10301961;28;20309;-84
2023/04/20 08:13:48;;;;;;;7.38;5.60;;;;;;;;;;10288227;28;21404;-84
2023/04/20 08:18:48;;;;;;;7.50;5.80;;;;;;;;;;10314996;28;20057;-83
2023/04/20 08:23:49;;;;;;;8.60;5.90;;;;;;;;;;10330977;28;20316;-83
2023/04/20 08:28:51;;;;;;;8.73;5.60;;;;;;;;;;10349058;28;20046;-82
2023/04/20 08:33:51;;;;;;;8.07;5.70;;;;;;;;;;10346586;28;20034;-81
2023/04/20 08:38:53;;;;;;;6.53;5.30;;;;;;;;;;10322486;28;20046;-80
2023/04/20 08:43:54;;;;;;;10.50;6.03;;;;;;;;;;10329690;28;20382;-81
2023/04/20 08:48:55;;;;;;;6.93;5.65;;;;;;;;;;10335803;28;20042;-83
2023/04/20 08:53:56;;;;;;;6.53;5.28;;;;;;;;;;10299873;28;20043;-83
2023/04/20 08:58:56;;;;;;;8.18;5.93;;;;;;;;;;10330852;28;20043;-81
2023/04/20 09:03:58;;;;;;;8.48;5.60;;;;;;;;;;10326629;28;20047;-81
2023/04/20 09:08:58;;;;;;;7.43;5.93;;;;;;;;;;10317122;28;20042;-82
2023/04/20 09:13:59;;;;;;;7.27;5.80;;;;;;;;;;10326593;28;20046;-85
2023/04/20 09:19:00;;;;;;;7.72;5.80;;;;;;;;;;10311943;28;20280;-81
2023/04/20 09:24:01;;;;;;;7.40;6.00;;;;;;;;;;10341632;28;20053;-81
2023/04/20 09:29:02;;;;;;;7.07;6.00;;;;;;;;;;10353379;28;20023;-82
2023/04/20 09:34:04;;;;;;;7.88;6.15;;;;;;;;;;10353509;28;20066;-82
2023/04/20 09:39:17;;;;;;;8.15;6.03;;;;;;;;;;10334281;28;20068;-82
2023/04/20 09:44:18;;;;;;;8.20;6.60;;;;;;;;;;10328316;28;20086;-81
2023/04/20 09:49:20;;;;;;;8.07;6.18;;;;;;;;;;10332487;28;20426;-83
2023/04/20 09:54:20;;;;;;;7.25;6.40;;;;;;;;;;10315778;28;20030;-80
2023/04/20 09:59:22;;;;;;;7.50;6.40;;;;;;;;;;10330442;28;20093;-84
2023/04/20 10:04:23;;;;;;;7.50;6.32;;;;;;;;;;10286975;28;20130;-83
2023/04/20 10:09:27;;;;;;;7.23;6.40;;;;;;;;;;10296719;28;20054;-82
2023/04/20 10:14:29;;;;;;;10.80;7.95;;;;;;;;;;10311804;28;20320;-86
2023/04/20 10:19:40;;;;;;;8.57;6.93;;;;;;;;;;10327327;28;20042;-82
2023/04/20 10:24:40;;;;;;;8.80;6.93;;;;;;;;;;10320521;28;20101;-82
2023/04/20 10:29:41;;;;;;;9.23;7.25;;;;;;;;;;10335545;28;20070;-84
2023/04/20 10:34:41;;;;;;;7.20;6.40;;;;;;;;;;10331652;28;20099;-86
2023/04/20 10:39:45;;;;;;;8.50;6.60;;;;;;;;;;10345626;28;20037;-84
2023/04/20 10:44:53;;;;;;;8.13;6.35;;;;;;;;;;10355907;28;20317;-81
2023/04/20 10:49:53;;;;;;;7.97;6.82;;;;;;;;;;10357832;28;20103;-81
2023/04/20 10:54:54;;;;;;;10.30;6.95;;;;;;;;;;10318204;28;20038;-83
2023/04/20 10:59:56;;;;;;;8.35;6.60;;;;;;;;;;10319428;28;20049;-83
2023/04/20 11:04:59;;;;;;;11.35;6.97;;;;;;;;;;10300508;28;20744;-77
2023/04/20 11:10:00;;;;;;;7.90;6.22;;;;;;;;;;10282861;28;20077;-79
2023/04/20 11:15:01;;;;;;;9.43;6.80;;;;;;;;;;10322800;28;20053;-82
2023/04/20 11:20:20;;;;;;;11.15;6.93;;;;;;;;;;10314203;28;20110;-82
2023/04/20 11:25:20;;;;;;;7.97;6.00;;;;;;;;;;10309112;28;20082;-83
2023/04/20 11:30:24;;;;;;;7.23;5.93;;;;;;;;;;10308824;28;20915;-82
2023/04/20 11:35:34;;;;;;;6.90;6.05;;;;;;;;;;10312817;28;20286;-80
2023/04/20 11:40:35;;;;;;;6.80;5.70;;;;;;;;;;10313544;28;20047;-81
2023/04/20 11:45:35;;;;;;;5.93;4.78;;;;;;;;;;10323848;28;20054;-83
2023/04/20 11:50:36;;;;;;;6.15;5.50;;;;;;;;;;10324025;28;20106;-81
2023/04/20 11:55:36;;;;;;;5.93;5.07;;;;;;;;;;10315257;28;20062;-84
2023/04/20 12:00:37;;;;;;;6.35;5.75;;;;;;;;;;10291101;28;20135;-78
2023/04/20 12:05:39;;;;;;;6.83;5.97;;;;;;;;;;10302496;28;20698;-80
2023/04/20 12:10:42;;;;;;;7.03;5.65;;;;;;;;;;10273283;28;20043;-83
2023/04/20 12:15:44;;;;;;;7.57;5.93;;;;;;;;;;10293323;28;20077;-81
2023/04/20 12:20:45;;;;;;;8.43;6.40;;;;;;;;;;10304863;28;20473;-81
2023/04/20 12:25:46;;;;;;;6.10;5.45;;;;;;;;;;10305322;28;20133;-82
2023/04/20 12:30:49;;;;;;;7.07;6.18;;;;;;;;;;10326153;28;20090;-81
2023/04/20 12:35:50;;;;;;;7.50;6.13;;;;;;;;;;10298616;28;20322;-82
2023/04/20 12:40:51;;;;;;;7.50;6.07;;;;;;;;;;10293658;28;20053;-82
2023/04/20 12:45:52;;;;;;;6.93;5.38;;;;;;;;;;10344130;28;20061;-81
2023/04/20 12:50:54;;;;;;;5.70;5.10;;;;;;;;;;10340188;28;20570;-81
2023/04/20 12:55:54;;;;;;;6.70;5.38;;;;;;;;;;10352513;28;20086;-80
2023/04/20 13:00:55;;;;;;;6.72;5.47;;;;;;;;;;10338031;28;20078;-82
2023/04/20 13:05:56;;;;;;;6.82;5.93;;;;;;;;;;10340464;28;20042;-82
2023/04/20 13:10:56;;;;;;;6.37;5.27;;;;;;;;;;10349114;28;20022;-81
2023/04/20 13:15:57;;;;;;;6.10;5.50;;;;;;;;;;10314504;28;21094;-82
2023/04/20 13:20:57;;;;;;;7.13;5.40;;;;;;;;;;10303882;28;20057;-84
2023/04/20 13:26:00;;;;;;;8.20;6.20;;;;;;;;;;10326618;28;20441;-80
2023/04/20 13:31:02;;;;;;;;;;;;;;;;;;10361847;28;20285;-81
2023/04/20 13:36:02;;;;;;;8.52;5.95;;;;;;;;;;10329403;28;19981;-85
2023/04/20 13:41:03;;;;;;;7.28;6.07;;;;;;;;;;10298282;28;20036;-83
2023/04/20 13:46:04;;;;;;;11.35;6.70;;;;;;;;;;10307264;28;20050;-84
2023/04/20 13:51:04;;;;;;;6.55;5.70;;;;;;;;;;10339931;28;20023;-79
2023/04/20 13:56:05;;;;;;;6.55;5.82;;;;;;;;;;10356379;28;20066;-80
2023/04/20 14:01:10;;;;;;;7.95;6.18;;;;;;;;;;10353193;28;20042;-78
2023/04/20 14:06:10;;;;;;;9.05;6.50;;;;;;;;;;10407916;23;20105;-80
2023/04/20 14:11:10;;;;;;;8.32;6.28;;;;;;;;;;10292690;28;20058;-78
2023/04/20 14:16:13;;;;;;;7.80;6.20;;;;;;;;;;10320534;28;20059;-81
2023/04/20 14:21:13;;;;;;;8.63;6.43;;;;;;;;;;10331912;28;20046;-79
2023/04/20 14:26:13;;;;;;;9.43;6.83;;;;;;;;;;10318787;28;20066;-80
2023/04/20 14:31:14;;;;;;;9.00;6.93;;;;;;;;;;10292525;28;20320;-81
2023/04/20 14:36:16;;;;;;;9.50;7.18;;;;;;;;;;10283683;28;20053;-80
2023/04/20 14:41:17;;;;;;;10.32;7.65;;;;;;;;;;10273563;28;20047;-85
2023/04/20 14:46:19;;;;;;;9.80;7.80;;;;;;;;;;10270970;28;20051;-82
2023/04/20 14:51:19;;;;;;;11.52;7.43;;;;;;;;;;10261572;28;20046;-80
2023/04/20 14:56:20;;;;;;;11.82;7.88;;;;;;;;;;10266140;28;20413;-78
2023/04/20 15:01:20;;;;;;;10.50;7.47;;;;;;;;;;10275250;28;20779;-78
2023/04/20 15:06:21;;;;;;;10.33;7.33;;;;;;;;;;10269038;28;20150;-77
2023/04/20 15:11:21;;;;;;;10.07;7.90;;;;;;;;;;10292736;28;20508;-76
2023/04/20 15:16:21;;;;;;;10.50;7.47;;;;;;;;;;10296681;28;20893;-79
2023/04/20 15:21:23;;;;;;;11.80;8.40;;;;;;;;;;10279708;28;20039;-78
2023/04/20 15:26:24;;;;;;;9.93;7.30;;;;;;;;;;10262714;28;20313;-78
2023/04/20 15:31:27;;;;;;;9.07;7.28;;;;;;;;;;10300042;28;20042;-79
2023/04/20 15:36:27;;;;;;;9.82;7.35;;;;;;;;;;10315478;28;20054;-77
2023/04/20 15:41:27;;;;;;;10.93;7.28;;;;;;;;;;10344121;28;20069;-78
2023/04/20 15:46:28;;;;;;;9.53;6.67;;;;;;;;;;10294632;28;20431;-78
2023/04/20 15:51:28;;;;;;;8.83;7.63;;;;;;;;;;10278171;28;20474;-77
2023/04/20 15:56:28;;;;;;;9.60;7.47;;;;;;;;;;10259753;28;20704;-78
2023/04/20 16:01:29;;;;;;;10.45;7.57;;;;;;;;;;10281273;28;20543;-77
2023/04/20 16:06:30;;;;;;;8.17;7.03;;;;;;;;;;10294857;28;20126;-78
2023/04/20 16:11:32;;;;;;;10.13;7.30;;;;;;;;;;10281664;28;20732;-79
2023/04/20 16:16:32;;;;;;;11.38;7.85;;;;;;;;;;10296319;28;20038;-81
2023/04/20 16:21:33;;;;;;;10.00;7.27;;;;;;;;;;10292279;28;20042;-78
2023/04/20 16:26:33;;;;;;;12.30;8.07;;;;;;;;;;10282336;28;20316;-78
2023/04/20 16:31:35;;;;;;;12.43;8.27;;;;;;;;;;10303266;28;20796;-78
2023/04/20 16:36:35;;;;;;;13.80;8.48;;;;;;;;;;10302936;28;20347;-80
2023/04/20 16:41:36;;;;;;;10.83;7.90;;;;;;;;;;10314417;28;20047;-80
2023/04/20 16:46:36;;;;;;;10.48;7.50;;;;;;;;;;10311345;28;20046;-77
2023/04/20 16:51:37;;;;;;;9.77;7.53;;;;;;;;;;10306964;28;20046;-80
2023/04/20 16:56:37;;;;;;;11.60;8.17;;;;;;;;;;10304261;28;20053;-77
2023/04/20 17:01:37;;;;;;;9.77;7.68;;;;;;;;;;10285439;28;20304;-77
2023/04/20 17:06:38;;;;;;;11.15;7.85;;;;;;;;;;10297268;28;20051;-78
2023/04/20 17:11:38;;;;;;;9.67;7.37;;;;;;;;;;10305400;28;20122;-77
2023/04/20 17:16:39;;;;;;;11.75;8.60;;;;;;;;;;10317472;28;20296;-82
2023/04/20 17:21:39;;;;;;;10.73;7.77;;;;;;;;;;10300798;28;20494;-82
2023/04/20 17:26:40;;;;;;;11.88;8.40;;;;;;;;;;10310977;28;20313;-82
2023/04/20 17:31:43;;;;;;;13.63;9.50;;;;;;;;;;10350133;28;20030;-81
2023/04/20 17:36:44;;;;;;;11.10;8.18;;;;;;;;;;10348681;28;20471;-79
2023/04/20 17:41:44;;;;;;;16.30;10.80;;;;;;;;;;10331558;28;20062;-78
2023/04/20 17:46:45;;;;;;;11.90;9.05;;;;;;;;;;10313499;28;20125;-79
2023/04/20 17:51:45;;;;;;;11.67;8.30;;;;;;;;;;10351955;28;20876;-78
2023/04/20 17:56:45;;;;;;;13.07;9.43;;;;;;;;;;10342806;28;20305;-77
2023/04/20 18:01:48;;;;;;;12.83;9.07;;;;;;;;;;10351418;28;20292;-78
2023/04/20 18:06:50;;;;;;;13.97;9.77;;;;;;;;;;10331351;28;20306;-80
2023/04/20 18:11:50;;;;;;;15.23;10.00;;;;;;;;;;10355497;28;20106;-79
2023/04/20 18:16:52;;;;;;;14.13;9.70;;;;;;;;;;10311418;28;20039;-79
2023/04/20 18:21:53;;;;;;;14.43;9.95;;;;;;;;;;10292216;28;20044;-80
2023/04/20 18:26:53;;;;;;;14.05;9.43;;;;;;;;;;10303025;28;20058;-80
2023/04/20 18:31:57;;;;;;;15.35;10.05;;;;;;;;;;10304015;28;20173;-80
2023/04/20 18:36:58;;;;;;;17.70;10.57;;;;;;;;;;10294279;28;20074;-80
2023/04/20 18:41:58;;;;;;;17.73;11.25;;;;;;;;;;10289929;28;20098;-78
2023/04/20 18:46:59;;;;;;;16.47;10.83;;;;;;;;;;10280132;28;20059;-79
2023/04/20 18:51:59;;;;;;;16.65;11.77;;;;;;;;;;10316761;28;20278;-78
2023/04/20 18:57:01;;;;;;;17.60;11.13;;;;;;;;;;10314067;28;20057;-79
2023/04/20 19:02:03;;;;;;;16.55;10.85;;;;;;;;;;10325368;28;20042;-81
2023/04/20 19:07:03;;;;;;;16.40;11.27;;;;;;;;;;10286167;28;20078;-80
2023/04/20 19:12:04;;;;;;;17.00;11.82;;;;;;;;;;10302399;28;20046;-80
2023/04/20 19:17:05;;;;;;;17.38;11.82;;;;;;;;;;10285544;28;20038;-79
2023/04/20 19:22:05;;;;;;;18.35;11.68;;;;;;;;;;10323429;28;20046;-83
2023/04/20 19:27:08;;;;;;;17.67;11.18;;;;;;;;;;10289377;28;20525;-82
2023/04/20 19:32:09;;;;;;;19.35;11.93;;;;;;;;;;10333695;28;20050;-81
2023/04/20 19:37:10;;;;;;;16.35;10.93;;;;;;;;;;10300875;28;20491;-81
2023/04/20 19:42:11;;;;;;;17.85;11.45;;;;;;;;;;10299303;28;20050;-81
2023/04/20 19:47:13;;;;;;;16.73;11.00;;;;;;;;;;10284698;28;20428;-83
2023/04/20 19:52:13;;;;;;;17.33;11.30;;;;;;;;;;10303846;28;20054;-79
2023/04/20 19:57:14;;;;;;;20.30;12.20;;;;;;;;;;10332469;28;20390;-80
2023/04/20 20:02:14;;;;;;;17.48;12.23;;;;;;;;;;10361669;28;20108;-85
2023/04/20 20:07:18;;;;;;;19.48;13.00;;;;;;;;;;10333387;28;20141;-85
2023/04/20 20:12:19;;;;;;;18.10;11.88;;;;;;;;;;10316444;28;20106;-84
2023/04/20 20:17:21;;;;;;;19.38;11.80;;;;;;;;;;10316742;28;20033;-85
2023/04/20 20:22:22;;;;;;;19.00;13.85;;;;;;;;;;10319188;28;20066;-84
2023/04/20 20:27:24;;;;;;;21.13;13.35;;;;;;;;;;10480120;23;20069;-84
2023/04/20 20:32:27;;;;;;;23.45;13.63;;;;;;;;;;10312554;28;20063;-86
2023/04/20 20:37:33;;;;;;;21.67;13.75;;;;;;;;;;10399170;23;20059;-85
2023/04/20 20:42:37;;;;;;;20.65;13.27;;;;;;;;;;10308733;28;20030;-87
2023/04/20 20:47:39;;;;;;;21.33;13.18;;;;;;;;;;10322260;28;20065;-86
2023/04/20 20:52:43;;;;;;;22.70;14.15;;;;;;;;;;10294226;28;20050;-85
2023/04/20 20:57:45;;;;;;;24.25;14.88;;;;;;;;;;10303131;28;20110;-86
2023/04/20 21:08:18;;;;;;;21.40;14.90;;;;;;;;;;10281245;28;20055;-88
2023/04/20 21:18:44;;;;;;;22.73;15.03;;;;;;;;;;10335336;23;20047;-87
2023/04/20 21:28:49;;;;;;;23.20;15.07;;;;;;;;;;10338203;28;20067;-83
2023/04/20 21:33:52;;;;;;;21.08;14.88;;;;;;;;;;10331071;28;20046;-84
2023/04/20 21:38:55;;;;;;;24.10;15.30;;;;;;;;;;10327607;28;20045;-84
2023/04/20 21:43:56;;;;;;;22.63;15.23;;;;;;;;;;10332171;28;20173;-89
2023/04/20 21:54:14;;;;;;;23.83;15.95;;;;;;;;;;10382451;23;20035;-82
2023/04/20 21:59:14;;;;;;;24.05;15.73;;;;;;;;;;10589874;23;20054;-83
2023/04/20 22:04:16;;;;;;;23.60;15.20;;;;;;;;;;10308953;28;20035;-86
2023/04/20 22:09:39;;;;;;;;;;;;;;;;;;;;;
2023/04/20 22:14:53;;;;;;;22.70;15.35;;;;;;;;;;10364599;28;20046;-88
2023/04/20 22:19:54;;;;;;;22.00;14.20;;;;;;;;;;10341714;28;20043;-87
2023/04/20 22:24:57;;;;;;;24.67;15.80;;;;;;;;;;10319641;28;20054;-86
2023/04/20 22:30:00;;;;;;;24.50;15.65;;;;;;;;;;10316279;28;20056;-85
2023/04/20 22:35:00;;;;;;;27.08;15.95;;;;;;;;;;10313960;28;20678;-87
2023/04/20 22:40:04;;;;;;;26.05;15.43;;;;;;;;;;10300709;28;20550;-87
2023/04/20 22:45:10;;;;;;;27.65;17.27;;;;;;;;;;10275620;28;21017;-84
2023/04/20 22:50:13;;;;;;;23.25;16.15;;;;;;;;;;10321459;28;20143;-83
2023/04/20 22:55:14;;;;;;;25.92;17.05;;;;;;;;;;10354606;28;20058;-86
2023/04/20 23:00:16;;;;;;;22.83;16.70;;;;;;;;;;10324346;28;20047;-87
2023/04/20 23:10:52;;;;;;;22.60;15.15;;;;;;;;;;10323176;23;20050;-86
2023/04/20 23:15:54;;;;;;;24.92;14.85;;;;;;;;;;10815649;23;20058;-84
2023/04/20 23:20:55;;;;;;;25.60;16.87;;;;;;;;;;10323060;28;20129;-86
2023/04/20 23:25:57;;;;;;;23.48;15.63;;;;;;;;;;10347989;28;20313;-85
2023/04/20 23:31:02;;;;;;;24.43;16.37;;;;;;;;;;10328064;28;20051;-86
2023/04/20 23:36:03;;;;;;;25.67;15.73;;;;;;;;;;10352464;28;20050;-85
2023/04/20 23:41:08;;;;;;;25.92;15.88;;;;;;;;;;10350044;28;20042;-85
2023/04/20 23:46:11;;;;;;;29.13;16.63;;;;;;;;;;10327962;28;20055;-85
2023/04/20 23:51:11;;;;;;;24.35;15.93;;;;;;;;;;10326489;28;20058;-84
2023/04/20 23:56:12;;;;;;;24.70;16.05;;;;;;;;;;10278075;28;20038;-88
